createdAt,value
2018-11-12T00:24:57.729Z,20.8
2018-11-12T00:25:47.004Z,20.8
2018-11-12T00:26:36.811Z,20.8
2018-11-12T00:27:27.226Z,20.8
2018-11-12T00:28:16.896Z,20.8
2018-11-12T00:29:08.128Z,20.8
2018-11-12T00:29:58.109Z,20.8
2018-11-12T00:30:47.627Z,20.8
2018-11-12T00:31:37.714Z,20.8
2018-11-12T00:32:27.154Z,20.8
2018-11-12T00:33:16.774Z,20.8
2018-11-12T00:34:06.414Z,20.8
2018-11-12T00:34:56.991Z,20.8
2018-11-12T00:35:46.766Z,20.8
2018-11-12T00:36:36.811Z,20.8
2018-11-12T00:37:26.974Z,20.8
2018-11-12T00:38:16.628Z,20.8
2018-11-12T00:39:07.464Z,20.8
2018-11-12T00:39:59.349Z,20.8
2018-11-12T00:40:47.105Z,20.8
2018-11-12T00:41:38.056Z,20.8
2018-11-12T00:42:27.731Z,20.8
2018-11-12T00:43:18.624Z,20.8
2018-11-12T00:44:08.105Z,20.8
2018-11-12T00:44:57.779Z,20.8
2018-11-12T00:45:48.474Z,20.8
2018-11-12T00:46:38.230Z,20.8
2018-11-12T00:47:28.645Z,20.8
2018-11-12T00:48:18.128Z,20.8
2018-11-12T00:49:08.264Z,20.8
2018-11-12T00:49:58.310Z,20.8
2018-11-12T00:50:48.258Z,20.8
2018-11-12T00:51:37.785Z,20.8
2018-11-12T00:52:28.140Z,20.8
2018-11-12T00:53:18.455Z,20.8
2018-11-12T00:54:07.847Z,20.8
2018-11-12T00:54:59.460Z,20.8
2018-11-12T00:55:49.223Z,20.8
2018-11-12T00:56:38.537Z,20.8
2018-11-12T00:57:29.362Z,20.8
2018-11-12T00:58:19.137Z,20.8
2018-11-12T00:59:08.382Z,20.8
2018-11-12T00:59:58.720Z,20.8
2018-11-12T01:00:50.918Z,20.8
2018-11-12T01:01:38.612Z,20.8
2018-11-12T01:02:29.222Z,20.8
2018-11-12T01:03:18.733Z,20.8
2018-11-12T01:04:10.798Z,20.8
2018-11-12T01:04:59.149Z,20.8
2018-11-12T01:05:50.462Z,20.8
2018-11-12T01:06:39.706Z,20.8
2018-11-12T01:07:29.865Z,20.8
2018-11-12T01:08:19.812Z,20.8
2018-11-12T01:09:09.296Z,20.8
2018-11-12T01:09:59.571Z,20.8
2018-11-12T01:10:50.082Z,20.8
2018-11-12T01:11:39.644Z,20.8
2018-11-12T01:12:29.850Z,20.8
2018-11-12T01:13:19.482Z,20.8
2018-11-12T01:14:10.025Z,20.8
2018-11-12T01:14:59.720Z,20.8
2018-11-12T01:15:49.871Z,20.8
2018-11-12T01:16:40.221Z,20.8
2018-11-12T01:17:30.548Z,20.8
2018-11-12T01:18:20.081Z,20.8
2018-11-12T01:19:10.174Z,20.8
2018-11-12T01:20:01.186Z,20.8
2018-11-12T01:20:51.057Z,20.8
2018-11-12T01:21:40.721Z,20.8
2018-11-12T01:22:30.852Z,20.8
2018-11-12T01:23:20.148Z,20.8
2018-11-12T01:24:09.944Z,20.8
2018-11-12T01:25:01.043Z,20.8
2018-11-12T01:25:51.121Z,20.8
2018-11-12T01:26:41.253Z,20.8
2018-11-12T01:27:30.789Z,20.8
2018-11-12T01:28:20.418Z,20.8
2018-11-12T01:29:11.798Z,20.8
2018-11-12T01:30:01.333Z,20.8
2018-11-12T01:30:52.483Z,20.8
2018-11-12T01:31:41.807Z,20.8
2018-11-12T01:32:32.041Z,20.8
2018-11-12T01:33:22.183Z,20.8
2018-11-12T01:34:11.918Z,20.8
2018-11-12T01:35:01.981Z,20.8
2018-11-12T01:35:51.464Z,20.8
2018-11-12T01:36:42.565Z,20.8
2018-11-12T01:37:32.123Z,20.8
2018-11-12T01:38:22.480Z,20.8
2018-11-12T01:39:12.275Z,20.8
2018-11-12T01:40:01.780Z,20.8
2018-11-12T01:40:52.485Z,20.8
2018-11-12T01:41:43.437Z,20.8
2018-11-12T01:42:32.550Z,20.8
2018-11-12T01:43:22.340Z,20.8
2018-11-12T01:44:13.189Z,20.8
2018-11-12T01:45:02.330Z,20.8
2018-11-12T01:45:52.727Z,20.8
2018-11-12T01:46:42.027Z,20.8
2018-11-12T01:47:33.209Z,20.8
2018-11-12T01:48:22.451Z,20.8
2018-11-12T01:49:12.892Z,20.8
2018-11-12T01:50:02.415Z,20.8
2018-11-12T01:50:53.278Z,20.8
2018-11-12T01:51:43.029Z,20.8
2018-11-12T01:52:33.443Z,20.8
2018-11-12T01:53:22.402Z,20.8
2018-11-12T01:54:13.134Z,20.8
2018-11-12T01:55:03.439Z,20.8
2018-11-12T01:55:53.648Z,20.8
2018-11-12T01:56:43.076Z,20.8
2018-11-12T01:57:33.708Z,20.8
2018-11-12T01:58:23.613Z,20.8
2018-11-12T01:59:13.322Z,20.8
2018-11-12T02:00:03.614Z,20.8
2018-11-12T02:00:54.206Z,20.8
2018-11-12T02:01:44.803Z,20.8
2018-11-12T02:02:33.661Z,20.8
2018-11-12T02:03:24.249Z,20.8
2018-11-12T02:04:14.363Z,20.8
2018-11-12T02:05:04.649Z,20.8
2018-11-12T02:05:54.791Z,20.8
2018-11-12T02:06:44.476Z,20.8
2018-11-12T02:07:33.978Z,20.8
2018-11-12T02:08:24.160Z,20.8
2018-11-12T02:09:14.563Z,20.8
2018-11-12T02:10:04.316Z,20.8
2018-11-12T02:10:54.150Z,20.8
2018-11-12T02:11:44.423Z,20.8
2018-11-12T02:12:34.128Z,20.8
2018-11-12T02:13:25.321Z,20.8
2018-11-12T02:14:14.196Z,20.8
2018-11-12T02:15:04.708Z,20.8
2018-11-12T02:15:53.736Z,20.8
2018-11-12T02:16:45.541Z,20.8
2018-11-12T02:17:35.268Z,20.8
2018-11-12T02:18:23.483Z,20.8
2018-11-12T02:19:15.669Z,20.8
2018-11-12T02:20:04.043Z,20.8
2018-11-12T02:20:54.995Z,20.8
2018-11-12T02:21:45.978Z,20.8
2018-11-12T02:22:35.919Z,20.8
2018-11-12T02:23:24.667Z,20.8
2018-11-12T02:24:14.850Z,20.8
2018-11-12T02:25:04.890Z,20.8
2018-11-12T02:25:55.437Z,20.8
2018-11-12T02:26:45.513Z,20.8
2018-11-12T02:27:36.075Z,20.8
2018-11-12T02:28:26.095Z,20.8
2018-11-12T02:29:15.688Z,20.8
2018-11-12T02:30:06.231Z,20.8
2018-11-12T02:30:55.301Z,20.8
2018-11-12T02:31:46.335Z,20.8
2018-11-12T02:32:35.513Z,20.8
2018-11-12T02:33:27.550Z,20.8
2018-11-12T02:34:15.247Z,20.8
2018-11-12T02:35:06.321Z,20.8
2018-11-12T02:35:56.599Z,20.8
2018-11-12T02:36:46.381Z,20.8
2018-11-12T02:37:37.566Z,20.8
2018-11-12T02:38:26.794Z,20.8
2018-11-12T02:39:16.599Z,20.8
2018-11-12T02:40:06.944Z,20.8
2018-11-12T02:40:56.727Z,20.8
2018-11-12T02:41:46.816Z,20.8
2018-11-12T02:42:36.547Z,20.8
2018-11-12T02:43:26.590Z,20.8
2018-11-12T02:44:16.636Z,20.8
2018-11-12T02:45:07.529Z,20.8
2018-11-12T02:45:56.763Z,20.8
2018-11-12T02:46:46.549Z,20.8
2018-11-12T02:47:37.407Z,20.8
2018-11-12T02:48:26.731Z,20.8
2018-11-12T02:49:17.793Z,20.8
2018-11-12T02:50:06.857Z,20.8
2018-11-12T02:50:57.219Z,20.8
2018-11-12T02:51:47.578Z,20.8
2018-11-12T02:52:37.523Z,20.8
2018-11-12T02:53:27.094Z,20.8
2018-11-12T02:54:17.650Z,20.8
2018-11-12T02:55:07.753Z,20.8
2018-11-12T02:55:57.195Z,20.8
2018-11-12T02:56:47.021Z,20.8
2018-11-12T02:57:39.049Z,20.8
2018-11-12T02:58:28.189Z,20.8
2018-11-12T02:59:17.808Z,20.8
2018-11-12T03:00:08.091Z,20.8
2018-11-12T03:00:57.579Z,20.8
2018-11-12T03:01:48.883Z,20.8
2018-11-12T03:02:38.230Z,20.8
2018-11-12T03:03:28.155Z,20.8
2018-11-12T03:04:17.796Z,20.8
2018-11-12T03:05:08.432Z,20.8
2018-11-12T03:05:58.485Z,20.8
2018-11-12T03:06:48.916Z,20.8
2018-11-12T03:07:38.087Z,20.8
2018-11-12T03:08:28.980Z,20.8
2018-11-12T03:09:19.268Z,20.8
2018-11-12T03:10:08.758Z,20.8
2018-11-12T03:10:58.328Z,20.8
2018-11-12T03:11:48.902Z,20.8
2018-11-12T03:12:38.512Z,20.8
2018-11-12T03:13:27.934Z,20.8
2018-11-12T03:14:18.527Z,20.8
2018-11-12T03:15:09.245Z,20.8
2018-11-12T03:15:59.819Z,20.8
2018-11-12T03:16:49.056Z,20.8
2018-11-12T03:17:39.649Z,20.8
2018-11-12T03:18:29.087Z,20.8
2018-11-12T03:19:19.394Z,20.8
2018-11-12T03:20:08.630Z,20.8
2018-11-12T03:20:59.867Z,20.8
2018-11-12T03:21:49.297Z,20.8
2018-11-12T03:22:39.944Z,20.8
2018-11-12T03:23:29.587Z,20.8
2018-11-12T03:24:19.029Z,20.8
2018-11-12T03:25:09.836Z,20.8
2018-11-12T03:26:00.169Z,20.8
2018-11-12T03:26:50.340Z,20.8
2018-11-12T03:27:41.661Z,20.8
2018-11-12T03:28:30.691Z,20.8
2018-11-12T03:29:19.816Z,20.8
2018-11-12T03:30:10.516Z,20.8
2018-11-12T03:31:00.012Z,20.8
2018-11-12T03:31:50.447Z,20.8
2018-11-12T03:32:40.392Z,20.8
2018-11-12T03:33:29.779Z,20.8
2018-11-12T03:34:20.618Z,20.8
2018-11-12T03:35:10.791Z,20.8
2018-11-12T03:36:00.657Z,20.8
2018-11-12T03:36:50.996Z,20.8
2018-11-12T03:37:40.504Z,20.8
2018-11-12T03:38:30.087Z,20.8
2018-11-12T03:39:21.408Z,20.8
2018-11-12T03:40:09.983Z,20.8
2018-11-12T03:41:00.969Z,20.8
2018-11-12T03:41:51.176Z,20.8
2018-11-12T03:42:40.834Z,20.8
2018-11-12T03:43:30.970Z,20.8
2018-11-12T03:44:21.228Z,20.8
2018-11-12T03:45:10.756Z,20.8
2018-11-12T03:46:01.428Z,20.8
2018-11-12T03:46:51.495Z,20.8
2018-11-12T03:47:42.041Z,20.8
2018-11-12T03:48:32.112Z,20.8
2018-11-12T03:49:20.796Z,20.8
2018-11-12T03:50:11.858Z,20.8
2018-11-12T03:51:02.219Z,20.8
2018-11-12T03:51:51.772Z,20.8
2018-11-12T03:52:41.342Z,20.8
2018-11-12T03:53:31.757Z,20.8
2018-11-12T03:54:21.766Z,20.8
2018-11-12T03:55:11.957Z,20.8
2018-11-12T03:56:02.088Z,20.8
2018-11-12T03:56:52.397Z,20.8
2018-11-12T03:57:41.882Z,20.8
2018-11-12T03:58:32.249Z,20.8
2018-11-12T03:59:22.615Z,20.8
2018-11-12T04:00:12.899Z,20.8
2018-11-12T04:01:01.447Z,20.8
2018-11-12T04:01:52.727Z,20.8
2018-11-12T04:02:42.942Z,20.8
2018-11-12T04:03:32.367Z,20.8
2018-11-12T04:04:22.980Z,20.8
2018-11-12T04:05:12.982Z,20.8
2018-11-12T04:06:02.761Z,20.8
2018-11-12T04:06:53.721Z,20.8
2018-11-12T04:07:43.538Z,20.8
2018-11-12T04:08:32.947Z,20.8
2018-11-12T04:09:23.011Z,20.8
2018-11-12T04:10:12.999Z,20.8
2018-11-12T04:11:02.595Z,20.8
2018-11-12T04:11:52.673Z,20.8
2018-11-12T04:12:43.607Z,20.8
2018-11-12T04:13:33.377Z,20.8
2018-11-12T04:14:23.384Z,20.8
2018-11-12T04:15:13.428Z,20.8
2018-11-12T04:16:04.336Z,20.8
2018-11-12T04:16:53.587Z,20.8
2018-11-12T04:17:43.683Z,20.8
2018-11-12T04:18:33.389Z,20.8
2018-11-12T04:19:23.241Z,20.8
2018-11-12T04:20:13.233Z,20.8
2018-11-12T04:21:03.653Z,20.8
2018-11-12T04:21:54.271Z,20.8
2018-11-12T04:22:43.791Z,20.8
2018-11-12T04:23:33.996Z,20.8
2018-11-12T04:24:24.071Z,20.8
2018-11-12T04:25:15.298Z,20.8
2018-11-12T04:26:03.641Z,20.8
2018-11-12T04:26:54.548Z,20.8
2018-11-12T04:27:44.608Z,20.8
2018-11-12T04:28:34.659Z,20.8
2018-11-12T04:29:24.143Z,20.8
2018-11-12T04:30:14.822Z,20.9
2018-11-12T04:31:04.933Z,20.8
2018-11-12T04:31:54.688Z,20.8
2018-11-12T04:32:45.235Z,20.8
2018-11-12T04:33:34.622Z,20.8
2018-11-12T04:34:24.595Z,20.8
2018-11-12T04:35:14.905Z,20.8
2018-11-12T04:36:04.317Z,20.8
2018-11-12T04:36:55.225Z,20.8
2018-11-12T04:54:13.277Z,20.8
2018-11-12T04:55:04.190Z,20.8
2018-11-12T04:55:53.872Z,20.8
2018-11-12T04:56:44.210Z,20.8
2018-11-12T04:57:33.652Z,20.8
2018-11-12T04:58:23.429Z,20.8
2018-11-12T04:59:14.344Z,20.9
2018-11-12T05:00:04.647Z,20.9
2018-11-12T05:00:54.432Z,20.9
2018-11-12T05:01:44.467Z,20.9
2018-11-12T05:02:33.639Z,20.9
2018-11-12T05:03:24.701Z,20.8
2018-11-12T05:04:14.489Z,20.8
2018-11-12T05:05:05.019Z,20.9
2018-11-12T05:05:54.551Z,20.9
2018-11-12T05:06:44.700Z,20.9
2018-11-12T05:07:35.348Z,20.9
2018-11-12T05:08:24.219Z,20.9
2018-11-12T05:09:14.254Z,20.9
2018-11-12T05:10:04.561Z,20.8
2018-11-12T05:10:54.656Z,20.9
2018-11-12T05:11:45.306Z,20.8
2018-11-12T05:12:35.567Z,20.8
2018-11-12T05:13:24.843Z,20.9
2018-11-12T05:14:14.630Z,20.9
2018-11-12T05:15:04.720Z,20.9
2018-11-12T05:15:55.801Z,20.9
2018-11-12T05:16:46.136Z,20.8
2018-11-12T05:17:35.048Z,20.9
2018-11-12T05:18:25.503Z,20.9
2018-11-12T05:19:15.178Z,20.8
2018-11-12T05:20:06.151Z,20.9
2018-11-12T05:20:55.487Z,20.9
2018-11-12T05:21:46.230Z,20.9
2018-11-12T05:22:35.162Z,20.9
2018-11-12T05:23:26.075Z,20.9
2018-11-12T05:24:16.125Z,20.9
2018-11-12T05:25:05.824Z,20.9
2018-11-12T05:25:56.212Z,20.9
2018-11-12T05:26:45.778Z,20.9
2018-11-12T05:27:36.167Z,20.9
2018-11-12T05:28:26.665Z,20.9
2018-11-12T05:29:16.761Z,20.8
2018-11-12T05:30:06.210Z,20.9
2018-11-12T05:30:55.709Z,20.9
2018-11-12T05:31:45.955Z,20.9
2018-11-12T05:32:36.720Z,20.9
2018-11-12T05:33:25.944Z,20.9
2018-11-12T05:34:16.003Z,20.9
2018-11-12T05:35:07.165Z,20.9
2018-11-12T05:35:56.742Z,20.9
2018-11-12T05:36:47.051Z,20.9
2018-11-12T05:37:36.815Z,20.9
2018-11-12T05:38:28.027Z,20.9
2018-11-12T05:39:17.504Z,20.9
2018-11-12T05:40:07.202Z,20.9
2018-11-12T05:40:56.646Z,20.9
2018-11-12T05:41:47.611Z,20.9
2018-11-12T05:42:36.907Z,20.9
2018-11-12T05:43:27.754Z,20.9
2018-11-12T05:44:17.036Z,20.9
2018-11-12T05:45:08.612Z,20.9
2018-11-12T05:45:57.167Z,20.9
2018-11-12T05:46:47.421Z,20.8
2018-11-12T05:47:37.567Z,20.9
2018-11-12T05:48:27.574Z,20.9
2018-11-12T05:49:17.618Z,20.9
2018-11-12T05:50:08.226Z,20.9
2018-11-12T05:50:58.004Z,20.9
2018-11-12T05:51:48.318Z,20.9
2018-11-12T05:52:37.898Z,20.9
2018-11-12T05:53:27.888Z,20.9
2018-11-12T05:54:18.271Z,20.9
2018-11-12T05:55:07.735Z,20.9
2018-11-12T05:55:58.701Z,20.9
2018-11-12T05:56:48.325Z,20.9
2018-11-12T05:58:27.883Z,20.9
2018-11-12T05:59:17.793Z,20.9
2018-11-12T06:00:08.186Z,20.9
2018-11-12T06:00:57.617Z,20.9
2018-11-12T06:01:48.592Z,20.9
2018-11-12T06:02:37.313Z,20.9
2018-11-12T06:03:28.397Z,20.9
2018-11-12T06:04:19.032Z,20.9
2018-11-12T06:05:08.411Z,20.9
2018-11-12T06:05:59.314Z,20.9
2018-11-12T06:06:48.625Z,20.9
2018-11-12T06:07:38.965Z,20.9
2018-11-12T06:08:29.883Z,20.9
2018-11-12T06:09:19.295Z,20.9
2018-11-12T06:10:08.327Z,20.9
2018-11-12T06:10:59.195Z,20.9
2018-11-12T06:11:49.214Z,20.9
2018-11-12T06:12:39.842Z,20.9
2018-11-12T06:13:29.410Z,20.9
2018-11-12T06:14:20.024Z,20.9
2018-11-12T06:15:08.680Z,20.9
2018-11-12T06:15:59.534Z,20.9
2018-11-12T06:16:49.433Z,20.9
2018-11-12T06:17:40.014Z,20.9
2018-11-12T06:18:29.115Z,20.9
2018-11-12T06:19:18.677Z,20.9
2018-11-12T06:20:09.862Z,20.9
2018-11-12T06:20:59.725Z,20.9
2018-11-12T06:21:49.894Z,20.9
2018-11-12T06:22:39.139Z,20.9
2018-11-12T06:23:29.710Z,20.9
2018-11-12T06:24:20.134Z,20.9
2018-11-12T06:25:09.954Z,20.9
2018-11-12T06:26:00.334Z,20.9
2018-11-12T06:26:50.577Z,20.9
2018-11-12T06:27:40.652Z,20.9
2018-11-12T06:28:30.672Z,20.9
2018-11-12T06:29:20.764Z,20.9
2018-11-12T06:30:10.072Z,20.9
2018-11-12T06:31:01.195Z,20.9
2018-11-12T06:31:50.744Z,20.9
2018-11-12T06:32:40.471Z,20.9
2018-11-12T06:33:30.179Z,20.8
2018-11-12T06:34:20.708Z,20.8
2018-11-12T06:35:10.483Z,20.8
2018-11-12T06:36:00.929Z,20.8
2018-11-12T06:36:52.834Z,20.8
2018-11-12T06:37:41.652Z,20.8
2018-11-12T06:38:30.896Z,20.8
2018-11-12T06:39:21.168Z,20.8
2018-11-12T06:40:11.606Z,20.8
2018-11-12T06:41:01.596Z,20.8
2018-11-12T06:41:51.419Z,20.8
2018-11-12T06:42:42.186Z,20.8
2018-11-12T06:43:31.583Z,20.8
2018-11-12T06:44:20.963Z,20.8
2018-11-12T06:45:11.455Z,20.8
2018-11-12T06:46:01.919Z,20.8
2018-11-12T06:46:52.076Z,20.8
2018-11-12T06:47:41.788Z,20.8
2018-11-12T06:48:31.188Z,20.8
2018-11-12T06:49:23.240Z,20.8
2018-11-12T06:50:11.198Z,20.8
2018-11-12T06:51:01.755Z,20.8
2018-11-12T06:51:52.349Z,20.8
2018-11-12T06:52:41.795Z,20.7
2018-11-12T06:53:33.963Z,20.7
2018-11-12T06:54:21.997Z,20.7
2018-11-12T06:55:12.115Z,20.7
2018-11-12T06:56:02.947Z,20.7
2018-11-12T06:56:52.940Z,20.7
2018-11-12T06:57:43.017Z,20.7
2018-11-12T06:58:32.766Z,20.7
2018-11-12T06:59:23.005Z,20.7
2018-11-12T07:00:12.962Z,20.6
2018-11-12T07:01:03.158Z,23.4
2018-11-12T07:01:53.359Z,23.2
2018-11-12T07:02:43.342Z,25.4
2018-11-12T07:04:22.924Z,28.9
2018-11-12T07:05:12.699Z,29.4
2018-11-12T07:06:02.754Z,28.9
2018-11-12T07:06:54.171Z,27.9
2018-11-12T07:07:43.311Z,27.3
2018-11-12T07:08:33.107Z,27.1
2018-11-12T07:09:23.359Z,26.9
2018-11-12T07:10:13.092Z,26.8
2018-11-12T07:11:03.711Z,26.7
2018-11-12T07:11:53.805Z,26.6
2018-11-12T07:12:43.498Z,26.5
2018-11-12T07:13:33.598Z,26.4
2018-11-12T07:14:22.495Z,26.3
2018-11-12T07:15:13.237Z,26.2
2018-11-12T07:16:04.328Z,26.1
2018-11-12T07:16:53.643Z,25.9
2018-11-12T07:17:43.055Z,25.9
2018-11-12T07:18:33.745Z,25
2018-11-12T07:19:24.052Z,26.5
2018-11-12T07:20:14.691Z,26.8
2018-11-12T07:21:04.828Z,29.2
2018-11-12T07:21:53.817Z,30.9
2018-11-12T07:22:44.158Z,31.5
2018-11-12T07:23:34.891Z,31.4
2018-11-12T07:24:23.887Z,31.1
2018-11-12T07:25:14.715Z,30.9
2018-11-12T07:26:04.180Z,30.8
2018-11-12T07:26:54.077Z,31
2018-11-12T07:27:44.902Z,31.3
2018-11-12T07:28:35.082Z,31.6
2018-11-12T07:29:24.416Z,31.9
2018-11-12T07:30:15.092Z,32.1
2018-11-12T07:31:04.952Z,32.2
2018-11-12T07:31:55.009Z,32.3
2018-11-12T07:32:45.242Z,32.4
2018-11-12T07:33:35.042Z,32.6
2018-11-12T07:34:25.366Z,32.7
2018-11-12T07:35:14.771Z,32.9
2018-11-12T07:36:04.751Z,33.1
2018-11-12T07:36:55.843Z,33.3
2018-11-12T07:37:45.720Z,33.4
2018-11-12T07:38:35.461Z,33.6
2018-11-12T07:39:25.719Z,33.8
2018-11-12T07:40:15.784Z,33.9
2018-11-12T07:41:05.536Z,34.1
2018-11-12T07:41:56.675Z,34.3
2018-11-12T07:42:45.693Z,34.4
2018-11-12T07:43:36.373Z,34.6
2018-11-12T07:44:25.036Z,34.7
2018-11-12T07:45:15.649Z,34.9
2018-11-12T07:46:05.753Z,35
2018-11-12T07:46:55.526Z,35.1
2018-11-12T07:47:45.866Z,35.3
2018-11-12T07:48:36.101Z,35.4
2018-11-12T07:49:25.756Z,35.6
2018-11-12T07:50:15.965Z,35.7
2018-11-12T07:51:06.445Z,35.8
2018-11-12T07:51:56.445Z,36
2018-11-12T07:52:46.188Z,36.1
2018-11-12T07:53:36.874Z,36.3
2018-11-12T07:54:27.226Z,36.5
2018-11-12T07:55:16.261Z,36.7
2018-11-12T07:56:07.037Z,36.8
2018-11-12T07:56:56.210Z,36.9
2018-11-12T07:57:47.170Z,37.1
2018-11-12T07:58:36.070Z,37.3
2018-11-12T07:59:27.010Z,37.4
2018-11-12T08:00:16.795Z,37.6
2018-11-12T08:01:07.567Z,37.7
2018-11-12T08:01:57.143Z,37.9
2018-11-12T08:02:46.314Z,38
2018-11-12T08:03:53.913Z,38.1
2018-11-12T08:04:28.067Z,38.4
2018-11-12T08:05:17.804Z,38.4
2018-11-12T08:06:07.044Z,38.6
2018-11-12T08:06:57.950Z,38.8
2018-11-12T08:07:47.492Z,38.9
2018-11-12T08:08:38.047Z,39.1
2018-11-12T08:09:28.707Z,39.2
2018-11-12T08:10:17.675Z,39.3
2018-11-12T08:11:06.765Z,39.4
2018-11-12T08:11:58.774Z,39.6
2018-11-12T08:12:47.632Z,39.8
2018-11-12T08:13:37.294Z,39.9
2018-11-12T08:14:29.555Z,40.1
2018-11-12T08:15:18.487Z,40.3
2018-11-12T08:16:07.597Z,40.4
2018-11-12T08:16:58.247Z,40.5
2018-11-12T08:17:50.642Z,40.6
2018-11-12T08:18:37.372Z,40.8
2018-11-12T08:19:26.362Z,40.9
2018-11-12T08:20:18.906Z,41.1
2018-11-12T08:21:07.749Z,41.3
2018-11-12T08:21:58.293Z,41.4
2018-11-12T08:22:48.945Z,41.5
2018-11-12T08:23:38.581Z,41.7
2018-11-12T08:24:30.032Z,41.8
2018-11-12T08:25:18.847Z,42
2018-11-12T08:26:09.111Z,42.1
2018-11-12T08:26:58.711Z,42.3
2018-11-12T08:27:47.905Z,42.4
2018-11-12T08:28:37.904Z,42.6
2018-11-12T08:29:29.298Z,42.8
2018-11-12T08:30:19.070Z,42.9
2018-11-12T08:31:09.436Z,43.1
2018-11-12T08:31:59.267Z,43.2
2018-11-12T08:32:48.981Z,43.3
2018-11-12T08:33:39.321Z,43.5
2018-11-12T08:34:29.433Z,43.7
2018-11-12T08:35:19.343Z,43.8
2018-11-12T08:36:09.531Z,44
2018-11-12T08:36:59.088Z,44.1
2018-11-12T08:37:50.023Z,44.3
2018-11-12T08:38:38.795Z,44.4
2018-11-12T08:39:30.814Z,44.6
2018-11-12T08:40:20.469Z,44.8
2018-11-12T08:41:09.863Z,44.9
2018-11-12T08:41:59.105Z,45.1
2018-11-12T08:42:51.158Z,45.2
2018-11-12T08:43:39.867Z,45.3
2018-11-12T08:44:28.545Z,45.5
2018-11-12T08:45:19.700Z,45.6
2018-11-12T08:46:10.509Z,45.8
2018-11-12T08:46:59.364Z,45.9
2018-11-12T08:47:49.772Z,46
2018-11-12T08:48:40.643Z,46.2
2018-11-12T08:49:32.898Z,46.3
2018-11-12T08:50:20.242Z,46.5
2018-11-12T08:51:11.012Z,46.6
2018-11-12T08:52:00.082Z,46.8
2018-11-12T08:52:50.509Z,46.9
2018-11-12T09:08:43.282Z,48.6
2018-11-12T09:09:33.841Z,48.8
2018-11-12T09:10:24.840Z,48.9
2018-11-12T09:11:14.154Z,48.7
2018-11-12T09:12:04.588Z,48.4
2018-11-12T09:12:54.401Z,48.3
2018-11-12T09:13:47.689Z,48.3
2018-11-12T09:14:34.683Z,48.4
2018-11-12T09:15:23.769Z,48.6
2018-11-12T09:16:14.347Z,48.7
2018-11-12T09:17:04.013Z,48.9
2018-11-12T09:17:54.338Z,49
2018-11-12T09:18:44.488Z,49.1
2018-11-12T09:19:34.673Z,49.2
2018-11-12T09:20:25.295Z,49.3
2018-11-12T09:21:14.175Z,49.4
2018-11-12T09:22:04.544Z,49.6
2018-11-12T09:22:55.643Z,49.8
2018-11-12T09:23:45.178Z,49.9
2018-11-12T09:24:35.455Z,50
2018-11-12T09:25:25.490Z,50.1
2018-11-12T09:26:15.655Z,50.3
2018-11-12T09:27:04.171Z,50.4
2018-11-12T09:27:54.753Z,50.5
2018-11-12T09:28:44.509Z,50.6
2018-11-12T09:29:36.087Z,50.8
2018-11-12T09:30:25.871Z,50.9
2018-11-12T09:31:25.113Z,51
2018-11-12T09:32:05.550Z,51.1
2018-11-12T09:32:56.179Z,51.2
2018-11-12T09:33:45.836Z,51.4
2018-11-12T09:34:36.884Z,51.4
2018-11-12T09:35:26.292Z,51.6
2018-11-12T09:36:16.400Z,51.6
2018-11-12T09:37:06.100Z,51.8
2018-11-12T09:37:56.670Z,51.9
2018-11-12T09:39:36.170Z,52.1
2018-11-12T09:40:26.090Z,52.1
2018-11-12T09:41:15.984Z,52.2
2018-11-12T09:42:07.226Z,52.3
2018-11-12T09:42:56.822Z,52.3
2018-11-12T09:44:36.881Z,52.5
2018-11-12T09:45:27.514Z,52.6
2018-11-12T09:46:17.581Z,52.8
2018-11-12T09:47:05.768Z,52.8
2018-11-12T09:47:58.444Z,52.9
2018-11-12T09:48:47.518Z,52.9
2018-11-12T09:49:37.534Z,53.1
2018-11-12T09:50:27.259Z,53.1
2018-11-12T09:51:16.914Z,53.2
2018-11-12T09:52:06.661Z,53.3
2018-11-12T09:52:57.447Z,53.3
2018-11-12T09:53:49.255Z,53.4
2018-11-12T09:54:40.650Z,53.4
2018-11-12T09:55:27.384Z,53.6
2018-11-12T09:56:18.491Z,53.7
2018-11-12T09:57:08.620Z,53.8
2018-11-12T09:57:58.086Z,53.8
2018-11-12T09:58:47.461Z,53.9
2018-11-12T09:59:37.646Z,53.9
2018-11-12T10:00:31.194Z,53.9
2018-11-12T10:01:22.936Z,54.1
2018-11-12T10:02:15.887Z,54.1
2018-11-12T10:03:05.485Z,54.3
2018-11-12T10:04:05.294Z,54.3
2018-11-12T10:04:48.216Z,54.4
2018-11-12T10:05:33.153Z,54.4
2018-11-12T10:06:35.898Z,54.6
2018-11-12T10:07:34.566Z,54.6
2018-11-12T10:08:16.322Z,54.7
2018-11-12T10:09:04.816Z,54.8
2018-11-12T10:10:11.715Z,54.8
2018-11-12T10:11:01.333Z,54.9
2018-11-12T10:12:05.361Z,55
2018-11-12T10:13:03.601Z,55.1
2018-11-12T10:14:04.288Z,55.2
2018-11-12T10:14:56.644Z,55.3
2018-11-12T10:15:51.399Z,55.3
2018-11-12T10:17:08.686Z,55.4
2018-11-12T10:18:31.485Z,55.4
2018-11-12T10:19:21.532Z,55.4
2018-11-12T10:20:12.855Z,55.4
2018-11-12T10:21:01.997Z,55.4
2018-11-12T10:21:52.597Z,55.4
2018-11-12T10:22:41.777Z,55.5
2018-11-12T10:23:32.647Z,55.4
2018-11-12T10:24:21.535Z,55.4
2018-11-12T10:25:12.174Z,55.5
2018-11-12T10:26:02.233Z,55.6
2018-11-12T10:26:52.262Z,55.6
2018-11-12T10:27:42.107Z,55.7
2018-11-12T10:28:32.027Z,55.8
2018-11-12T10:29:22.061Z,55.8
2018-11-12T10:30:12.090Z,55.8
2018-11-12T10:31:02.771Z,55.8
2018-11-12T10:31:52.756Z,55.8
2018-11-12T10:32:43.264Z,55.9
2018-11-12T10:33:33.464Z,55.9
2018-11-12T10:34:22.497Z,56.1
2018-11-12T10:35:12.802Z,56.1
2018-11-12T10:36:02.746Z,56.2
2018-11-12T10:36:52.559Z,56.3
2018-11-12T10:37:43.051Z,56.4
2018-11-12T10:38:32.743Z,56.5
2018-11-12T10:39:22.799Z,56.5
2018-11-12T10:40:13.491Z,56.6
2018-11-12T10:41:03.508Z,56.7
2018-11-12T10:41:54.116Z,56.8
2018-11-12T10:42:45.304Z,56.8
2018-11-12T10:43:33.798Z,56.9
2018-11-12T10:44:23.623Z,56.9
2018-11-12T10:45:13.708Z,57.1
2018-11-12T10:46:03.733Z,57.1
2018-11-12T10:46:54.311Z,57.2
2018-11-12T10:47:44.072Z,57.3
2018-11-12T10:48:34.072Z,57.3
2018-11-12T10:49:24.502Z,57.3
2018-11-12T10:50:14.055Z,57.4
2018-11-12T10:51:10.364Z,57.3
2018-11-12T10:51:54.629Z,57.2
2018-11-12T10:52:44.131Z,57.1
2018-11-12T10:53:34.754Z,57.2
2018-11-12T10:54:24.829Z,57.3
2018-11-12T10:55:16.208Z,57.3
2018-11-12T10:56:08.065Z,57.4
2018-11-12T10:56:54.517Z,57.4
2018-11-12T10:57:45.075Z,57.4
2018-11-12T10:58:35.343Z,57.6
2018-11-12T10:59:24.685Z,57.6
2018-11-12T11:00:16.318Z,57.6
2018-11-12T11:01:04.494Z,57.7
2018-11-12T11:01:55.367Z,57.8
2018-11-12T11:02:44.692Z,57.8
2018-11-12T11:03:34.954Z,57.9
2018-11-12T11:04:25.857Z,58
2018-11-12T11:05:15.070Z,58
2018-11-12T11:06:04.262Z,58.1
2018-11-12T11:06:55.748Z,58.1
2018-11-12T11:07:44.986Z,58.2
2018-11-12T11:08:35.422Z,58.3
2018-11-12T11:09:25.620Z,58.3
2018-11-12T11:10:14.852Z,58.4
2018-11-12T11:11:05.824Z,58.4
2018-11-12T11:11:55.435Z,58.5
2018-11-12T11:12:45.887Z,58.3
2018-11-12T11:13:35.688Z,58.2
2018-11-12T11:14:26.132Z,58.3
2018-11-12T11:15:16.468Z,58.3
2018-11-12T11:16:05.521Z,58.3
2018-11-12T11:16:56.084Z,58.3
2018-11-12T11:17:45.787Z,58.3
2018-11-12T11:18:36.070Z,58.3
2018-11-12T11:19:26.842Z,58.4
2018-11-12T11:20:16.154Z,58.4
2018-11-12T11:21:06.662Z,58.5
2018-11-12T11:21:56.863Z,58.5
2018-11-12T11:22:46.590Z,58.6
2018-11-12T11:23:37.238Z,58.7
2018-11-12T11:24:27.010Z,58.7
2018-11-12T11:25:16.303Z,58.8
2018-11-12T11:26:06.974Z,58.8
2018-11-12T11:26:57.205Z,58.9
2018-11-12T11:27:46.366Z,58.9
2018-11-12T11:28:37.601Z,58.9
2018-11-12T11:29:27.628Z,58.8
2018-11-12T11:30:16.465Z,58.5
2018-11-12T11:31:07.831Z,58.4
2018-11-12T11:31:56.202Z,58.3
2018-11-12T11:32:47.173Z,58.4
2018-11-12T11:33:37.178Z,58.5
2018-11-12T11:35:17.003Z,58.6
2018-11-12T11:36:06.878Z,58.7
2018-11-12T11:36:57.215Z,58.7
2018-11-12T11:37:47.544Z,58.7
2018-11-12T11:38:37.187Z,58.8
2018-11-12T11:39:27.005Z,58.8
2018-11-12T11:40:19.142Z,58.9
2018-11-12T11:41:07.621Z,58.9
2018-11-12T11:41:57.722Z,59
2018-11-12T11:42:47.827Z,59.1
2018-11-12T11:43:37.618Z,59.1
2018-11-12T11:44:27.362Z,59.1
2018-11-12T11:45:17.775Z,59.3
2018-11-12T11:46:07.649Z,59.3
2018-11-12T11:46:58.937Z,59.3
2018-11-12T11:47:50.462Z,59.4
2018-11-12T11:48:38.981Z,59.4
2018-11-12T11:49:27.605Z,59.4
2018-11-12T11:50:18.666Z,59.5
2018-11-12T11:51:08.392Z,59.5
2018-11-12T11:51:58.279Z,59.6
2018-11-12T11:52:48.506Z,59.6
2018-11-12T11:53:38.358Z,59.7
2018-11-12T11:54:28.050Z,59.7
2018-11-12T11:55:17.995Z,59.8
2018-11-12T11:56:08.702Z,59.8
2018-11-12T11:56:59.313Z,59.7
2018-11-12T11:57:49.857Z,59.8
2018-11-12T11:58:38.844Z,59.8
2018-11-12T11:59:28.791Z,59.8
2018-11-12T12:00:18.862Z,59.8
2018-11-12T12:01:10.739Z,59.8
2018-11-12T12:01:59.819Z,59.8
2018-11-12T12:02:49.909Z,59.8
2018-11-12T12:03:38.881Z,59.8
2018-11-12T12:04:29.828Z,59.5
2018-11-12T12:05:20.233Z,59.3
2018-11-12T12:06:09.676Z,59.1
2018-11-12T12:06:59.318Z,59.1
2018-11-12T12:07:49.596Z,59.1
2018-11-12T12:08:39.419Z,59.2
2018-11-12T12:09:30.321Z,59.2